createdAt,value
2023-01-23T06:48:01.246Z,85.54
2023-01-23T06:50:49.977Z,85.54
2023-01-23T06:53:37.433Z,87.77
2023-01-23T07:00:29.341Z,88.01
2023-01-23T07:03:15.468Z,87.45
2023-01-23T07:16:08.714Z,87.33
2023-01-23T07:18:55.005Z,87.59
2023-01-23T07:21:40.652Z,87.47
2023-01-23T07:24:28.598Z,87.30
2023-01-23T07:27:15.355Z,87.18
2023-01-23T07:30:00.671Z,87.42
2023-01-23T07:32:46.069Z,87.38
2023-01-23T07:35:34.653Z,87.38
2023-01-23T07:38:20.983Z,87.47
2023-01-23T07:41:07.198Z,87.38
2023-01-23T07:43:52.813Z,87.05
2023-01-23T07:46:38.288Z,87.01
2023-01-23T07:49:23.973Z,86.76
2023-01-23T07:52:13.406Z,86.77
2023-01-23T07:54:58.811Z,86.48
2023-01-23T07:57:44.223Z,86.73
2023-01-23T08:00:30.433Z,86.55
2023-01-23T08:03:16.191Z,86.80
2023-01-23T08:06:01.451Z,86.95
2023-01-23T08:08:53.862Z,86.68
2023-01-23T08:11:39.781Z,86.58
2023-01-23T08:14:25.675Z,86.54
2023-01-23T08:17:11.484Z,86.39
2023-01-23T08:19:57.008Z,86.54
2023-01-23T08:22:42.278Z,86.38
2023-01-23T08:25:28.978Z,86.32
2023-01-23T08:28:14.662Z,85.93
2023-01-23T08:31:06.562Z,85.89
2023-01-23T08:33:52.396Z,85.93
2023-01-23T08:36:38.568Z,85.58
2023-01-23T08:39:24.657Z,85.09
2023-01-23T08:42:11.257Z,84.49
2023-01-23T08:44:57.056Z,84.55
2023-01-23T08:47:42.698Z,84.24
2023-01-23T08:50:28.029Z,83.93
2023-01-23T08:53:13.720Z,83.33
2023-01-23T08:56:04.268Z,82.68
2023-01-23T08:58:49.832Z,82.04
2023-01-23T09:01:35.261Z,81.38
2023-01-23T09:04:20.643Z,80.91
2023-01-23T09:07:06.028Z,81.22
2023-01-23T09:09:51.579Z,81.67
2023-01-23T09:12:37.066Z,82.19
2023-01-23T09:15:22.832Z,82.45
2023-01-23T09:18:14.784Z,82.81
2023-01-23T09:21:00.213Z,82.85
2023-01-23T09:23:45.705Z,82.86
2023-01-23T09:26:32.355Z,82.78
2023-01-23T09:29:17.728Z,82.79
2023-01-23T09:32:04.131Z,82.59
2023-01-23T09:34:49.605Z,82.69
2023-01-23T09:37:58.395Z,82.22
2023-01-23T09:41:08.603Z,82.39
2023-01-23T09:44:00.428Z,82.70
2023-01-23T09:46:49.527Z,82.51
2023-01-23T09:50:00.582Z,83.03
2023-01-23T09:52:55.509Z,83.19
2023-01-23T09:55:44.292Z,83.17
2023-01-23T09:58:48.335Z,83.53
2023-01-23T10:01:33.893Z,83.67
2023-01-23T10:04:20.295Z,83.09
2023-01-23T10:07:25.152Z,82.79
2023-01-23T10:10:40.796Z,82.22
2023-01-23T10:13:57.613Z,81.74
2023-01-23T10:17:06.181Z,81.11
2023-01-23T10:20:13.486Z,81.46
2023-01-23T10:22:58.609Z,81.91
2023-01-23T10:25:43.927Z,82.32
2023-01-23T10:28:39.032Z,82.40
2023-01-23T10:31:33.920Z,82.65
2023-01-23T10:34:34.508Z,83.32
2023-01-23T10:37:44.825Z,83.10
2023-01-23T10:40:48.619Z,83.05
2023-01-23T10:43:35.651Z,83.09
2023-01-23T10:46:22.556Z,83.36
2023-01-23T10:49:09.804Z,83.04
2023-01-23T10:51:55.630Z,82.89
2023-01-23T10:54:47.612Z,83.00
2023-01-23T10:57:53.128Z,83.32
2023-01-23T11:00:46.374Z,83.54
2023-01-23T11:03:34.541Z,83.39
2023-01-23T11:06:22.543Z,83.67
2023-01-23T11:09:19.697Z,84.18
2023-01-23T11:12:05.776Z,84.66
2023-01-23T11:14:51.663Z,84.75
2023-01-23T11:17:37.213Z,84.73
2023-01-23T11:20:37.909Z,85.20
2023-01-23T11:23:23.704Z,85.36
2023-01-23T11:26:31.926Z,85.82
2023-01-23T11:29:25.642Z,85.63
2023-01-23T11:32:13.406Z,86.41
2023-01-23T11:35:35.992Z,86.39
2023-01-23T11:38:30.859Z,86.75
2023-01-23T11:41:16.722Z,87.55
2023-01-23T11:44:10.018Z,87.58
2023-01-23T11:47:13.670Z,87.74
2023-01-23T11:50:41.100Z,88.25
2023-01-23T11:54:00.226Z,88.72
